createdAt,value
2019-03-11T00:01:24.070Z,37.08
2019-03-11T00:03:57.313Z,36.99
2019-03-11T00:06:30.543Z,36.98
2019-03-11T00:09:04.475Z,36.98
2019-03-11T00:11:39.328Z,36.95
2019-03-11T00:14:12.588Z,37.01
2019-03-11T00:16:45.815Z,37.00
2019-03-11T00:19:19.096Z,36.91
2019-03-11T00:21:52.282Z,36.95
2019-03-11T00:24:25.531Z,36.98
2019-03-11T00:26:58.756Z,36.96
2019-03-11T00:29:32.232Z,36.95
2019-03-11T00:32:05.467Z,36.96
2019-03-11T00:34:38.711Z,36.96
2019-03-11T00:37:13.566Z,36.94
2019-03-11T00:39:46.821Z,37.02
2019-03-11T00:42:20.047Z,36.95
2019-03-11T00:44:53.299Z,36.97
2019-03-11T00:47:26.542Z,36.99
2019-03-11T00:50:00.013Z,36.95
2019-03-11T00:52:33.338Z,36.96
2019-03-11T00:55:08.317Z,36.84
2019-03-11T00:57:41.558Z,36.88
2019-03-11T01:00:24.208Z,36.85
2019-03-11T01:02:57.440Z,36.90
2019-03-11T01:05:30.691Z,36.85
2019-03-11T01:08:03.922Z,36.89
2019-03-11T01:10:37.170Z,36.83
2019-03-11T01:13:10.402Z,36.80
2019-03-11T01:15:43.657Z,36.82
2019-03-11T01:18:16.890Z,36.83
2019-03-11T01:20:50.143Z,36.80
2019-03-11T01:23:23.366Z,36.83
2019-03-11T01:25:56.600Z,36.79
2019-03-11T01:28:29.824Z,36.81
2019-03-11T01:31:03.068Z,36.81
2019-03-11T01:33:36.296Z,36.78
2019-03-11T01:36:09.532Z,36.73
2019-03-11T01:38:42.760Z,36.75
2019-03-11T01:41:16.003Z,36.62
2019-03-11T01:43:49.230Z,36.63
2019-03-11T01:46:22.467Z,36.64
2019-03-11T01:48:55.688Z,36.65
2019-03-11T01:51:28.929Z,36.69
2019-03-11T01:54:02.162Z,36.72
2019-03-11T01:56:35.408Z,36.70
2019-03-11T01:59:08.649Z,36.71
2019-03-11T02:01:41.897Z,36.71
2019-03-11T02:04:15.130Z,36.68
2019-03-11T02:06:48.399Z,36.67
2019-03-11T02:09:21.621Z,36.66
2019-03-11T02:11:54.875Z,36.59
2019-03-11T02:14:28.086Z,36.57
2019-03-11T02:17:01.352Z,36.62
2019-03-11T02:19:34.586Z,36.55
2019-03-11T02:22:07.848Z,36.56
2019-03-11T02:24:41.087Z,36.56
2019-03-11T02:27:14.334Z,36.51
2019-03-11T02:29:47.564Z,36.54
2019-03-11T02:32:20.812Z,36.51
2019-03-11T02:34:54.044Z,36.51
2019-03-11T02:37:27.294Z,36.44
2019-03-11T02:40:00.720Z,36.50
2019-03-11T02:42:33.935Z,36.44
2019-03-11T02:45:08.514Z,36.42
2019-03-11T02:47:41.761Z,36.43
2019-03-11T02:50:14.986Z,36.40
2019-03-11T02:52:48.244Z,36.40
2019-03-11T02:55:21.465Z,36.26
2019-03-11T02:57:54.705Z,36.26
2019-03-11T03:00:27.935Z,36.25
2019-03-11T03:03:01.186Z,36.17
2019-03-11T03:05:34.441Z,36.11
2019-03-11T03:08:07.677Z,36.13
2019-03-11T03:10:41.879Z,36.15
2019-03-11T03:13:15.150Z,36.22
2019-03-11T03:15:48.371Z,36.21
2019-03-11T03:18:21.603Z,36.28
2019-03-11T03:20:54.840Z,36.33
2019-03-11T03:23:28.087Z,36.35
2019-03-11T03:26:02.302Z,36.40
2019-03-11T03:28:35.545Z,36.40
2019-03-11T03:31:08.765Z,36.38
2019-03-11T03:33:42.023Z,36.44
2019-03-11T03:36:15.243Z,36.52
2019-03-11T03:38:48.486Z,36.53
2019-03-11T03:41:21.711Z,36.54
2019-03-11T03:43:54.967Z,36.50
2019-03-11T03:46:28.184Z,36.48
2019-03-11T03:49:01.443Z,36.41
2019-03-11T03:51:34.673Z,36.38
2019-03-11T03:54:07.918Z,36.44
2019-03-11T03:56:41.158Z,36.39
2019-03-11T03:59:14.411Z,36.43
2019-03-11T04:01:47.638Z,36.42
2019-03-11T04:04:20.885Z,36.40
2019-03-11T04:06:54.108Z,36.34
2019-03-11T04:09:27.348Z,36.33
2019-03-11T04:12:00.596Z,36.30
2019-03-11T04:14:34.795Z,36.30
2019-03-11T04:17:08.032Z,36.22
2019-03-11T04:19:41.306Z,36.22
2019-03-11T04:22:14.495Z,36.11
2019-03-11T04:24:47.744Z,36.14
2019-03-11T04:27:20.969Z,36.13
2019-03-11T04:29:54.212Z,36.11
2019-03-11T04:32:27.440Z,36.18
2019-03-11T04:35:00.685Z,36.18
2019-03-11T04:37:33.907Z,36.14
2019-03-11T04:40:11.632Z,36.21
2019-03-11T04:42:44.863Z,36.16
2019-03-11T04:45:18.113Z,36.13
2019-03-11T04:47:51.342Z,36.10
2019-03-11T04:50:24.582Z,36.05
2019-03-11T04:52:57.817Z,35.96
2019-03-11T04:55:31.064Z,35.95
2019-03-11T04:58:04.289Z,35.93
2019-03-11T05:00:37.572Z,35.92
2019-03-11T05:03:10.772Z,35.94
2019-03-11T05:05:44.027Z,35.93
2019-03-11T05:08:17.256Z,35.97
2019-03-11T05:10:50.503Z,35.93
2019-03-11T05:13:23.729Z,35.98
2019-03-11T05:15:56.968Z,36.04
2019-03-11T05:18:30.209Z,36.01
2019-03-11T05:21:03.447Z,36.05
2019-03-11T05:23:36.674Z,36.06
2019-03-11T05:26:09.911Z,36.03
2019-03-11T05:28:43.140Z,35.93
2019-03-11T05:31:16.398Z,35.81
2019-03-11T05:33:49.614Z,35.67
2019-03-11T05:36:22.867Z,35.70
2019-03-11T05:38:56.097Z,35.63
2019-03-11T05:41:29.345Z,35.58
2019-03-11T05:44:02.575Z,35.68
2019-03-11T05:46:35.819Z,35.76
2019-03-11T05:49:09.046Z,36.02
2019-03-11T05:51:42.301Z,36.50
2019-03-11T05:54:15.578Z,36.65
2019-03-11T05:56:49.790Z,36.78
2019-03-11T05:59:23.015Z,37.10
2019-03-11T06:01:56.293Z,36.86
2019-03-11T06:04:29.501Z,36.74
2019-03-11T06:07:02.739Z,36.82
2019-03-11T06:09:35.970Z,36.77
2019-03-11T06:12:09.233Z,36.70
2019-03-11T06:14:42.468Z,36.68
2019-03-11T06:17:15.706Z,36.48
2019-03-11T06:19:48.932Z,36.50
2019-03-11T06:22:22.188Z,36.33
2019-03-11T06:24:55.659Z,36.51
2019-03-11T06:27:28.909Z,36.59
2019-03-11T06:30:02.511Z,36.37
2019-03-11T06:32:35.752Z,36.39
2019-03-11T06:35:08.979Z,36.33
2019-03-11T06:37:42.222Z,36.31
2019-03-11T06:40:15.454Z,36.32
2019-03-11T06:42:48.705Z,36.22
2019-03-11T06:45:21.928Z,36.24
2019-03-11T06:47:55.169Z,36.37
2019-03-11T06:50:28.398Z,36.34
2019-03-11T06:53:01.672Z,36.45
2019-03-11T06:55:34.896Z,36.70
2019-03-11T06:58:08.138Z,37.10
2019-03-11T07:00:41.364Z,37.53
2019-03-11T07:03:14.610Z,37.00
2019-03-11T07:05:47.838Z,36.52
2019-03-11T07:08:21.078Z,36.44
2019-03-11T07:10:54.313Z,36.36
2019-03-11T07:13:27.558Z,36.18
2019-03-11T07:16:00.786Z,36.83
2019-03-11T07:18:34.021Z,36.67
2019-03-11T07:21:07.253Z,36.71
2019-03-11T07:23:40.508Z,36.82
2019-03-11T07:26:13.736Z,36.90
2019-03-11T07:28:46.977Z,36.95
2019-03-11T07:31:20.208Z,37.01
2019-03-11T07:33:53.448Z,37.04
2019-03-11T07:36:26.672Z,37.06
2019-03-11T07:38:59.915Z,37.16
2019-03-11T07:41:33.139Z,37.16
2019-03-11T07:44:06.396Z,37.16
2019-03-11T07:46:39.624Z,37.39
2019-03-11T07:49:12.865Z,37.47
2019-03-11T07:51:46.092Z,37.54
2019-03-11T07:54:20.955Z,37.55
2019-03-11T07:56:54.428Z,37.62
2019-03-11T07:59:27.673Z,37.64
2019-03-11T08:02:00.898Z,37.72
2019-03-11T08:04:34.131Z,37.74
2019-03-11T08:07:07.371Z,37.72
2019-03-11T08:09:40.612Z,37.81
2019-03-11T08:12:13.851Z,37.90
2019-03-11T08:14:47.100Z,37.87
2019-03-11T08:17:20.394Z,37.95
2019-03-11T08:19:53.625Z,37.93
2019-03-11T08:22:26.848Z,37.89
2019-03-11T08:25:00.199Z,38.07
2019-03-11T08:27:33.497Z,37.91
2019-03-11T08:30:09.842Z,37.93
2019-03-11T08:32:43.071Z,37.90
2019-03-11T08:35:16.325Z,37.75
2019-03-11T08:37:49.566Z,37.72
2019-03-11T08:40:22.813Z,37.63
2019-03-11T08:42:56.048Z,37.43
2019-03-11T08:45:29.298Z,36.84
2019-03-11T08:48:02.529Z,36.97
2019-03-11T08:50:35.796Z,36.81
2019-03-11T08:53:09.030Z,36.65
2019-03-11T08:55:42.280Z,36.51
2019-03-11T08:58:15.510Z,36.41
2019-03-11T09:00:48.762Z,36.28
2019-03-11T09:03:21.989Z,36.10
2019-03-11T09:05:55.233Z,35.93
2019-03-11T09:08:28.460Z,35.82
2019-03-11T09:11:01.715Z,35.77
2019-03-11T09:13:34.947Z,35.80
2019-03-11T09:16:08.189Z,35.79
2019-03-11T09:18:42.386Z,35.76
2019-03-11T09:21:15.647Z,35.63
2019-03-11T09:23:48.871Z,35.62
2019-03-11T09:26:22.108Z,35.67
2019-03-11T09:28:55.346Z,35.88
2019-03-11T09:31:28.592Z,36.43
2019-03-11T09:34:01.829Z,36.19
2019-03-11T09:36:36.032Z,35.94
2019-03-11T09:39:09.631Z,35.82
2019-03-11T09:41:42.882Z,35.70
2019-03-11T09:44:16.115Z,35.69
2019-03-11T09:46:49.355Z,35.81
2019-03-11T09:49:22.591Z,35.76
2019-03-11T09:51:55.827Z,35.76
2019-03-11T09:54:30.019Z,35.71
2019-03-11T09:57:04.884Z,35.78
2019-03-11T09:59:38.130Z,35.74
2019-03-11T10:02:12.424Z,35.83
2019-03-11T10:04:45.779Z,35.77
2019-03-11T10:07:19.016Z,35.73
2019-03-11T10:09:52.253Z,35.66
2019-03-11T10:12:25.492Z,35.88
2019-03-11T10:14:58.726Z,35.47
2019-03-11T10:17:31.983Z,35.21
2019-03-11T10:20:08.146Z,35.12
2019-03-11T10:22:41.394Z,34.99
2019-03-11T10:25:15.551Z,35.00
2019-03-11T10:27:48.795Z,34.95
2019-03-11T10:30:23.070Z,35.03
2019-03-11T10:32:56.309Z,35.23
2019-03-11T10:35:32.562Z,35.13
2019-03-11T10:38:04.489Z,34.98
2019-03-11T10:40:37.722Z,34.99
2019-03-11T10:43:10.978Z,35.00
2019-03-11T10:45:44.215Z,34.96
2019-03-11T10:48:17.457Z,35.02
2019-03-11T10:50:50.779Z,35.04
2019-03-11T10:53:24.097Z,35.00
2019-03-11T10:55:59.855Z,34.98
2019-03-11T10:58:32.277Z,35.02
2019-03-11T11:01:05.508Z,34.96
2019-03-11T11:03:38.755Z,34.89
2019-03-11T11:06:12.232Z,34.87
2019-03-11T11:08:45.477Z,34.74
2019-03-11T11:11:18.702Z,34.67
2019-03-11T11:13:51.934Z,34.64
2019-03-11T11:16:25.160Z,34.63
2019-03-11T11:18:58.404Z,34.74
2019-03-11T11:21:31.635Z,35.10
2019-03-11T11:24:04.905Z,35.21
2019-03-11T11:26:38.143Z,35.31
2019-03-11T11:29:11.405Z,35.43
2019-03-11T11:31:44.634Z,35.34
2019-03-11T11:34:17.868Z,35.33
2019-03-11T11:36:51.090Z,35.38
2019-03-11T11:39:24.339Z,35.20
2019-03-11T11:41:57.562Z,35.20
2019-03-11T11:44:30.793Z,35.07
2019-03-11T11:47:04.014Z,34.83
2019-03-11T11:49:37.251Z,34.87
2019-03-11T11:52:10.494Z,34.86
2019-03-11T11:54:43.761Z,34.71
2019-03-11T11:57:17.023Z,34.68
2019-03-11T11:59:54.262Z,35.29
2019-03-11T12:02:25.217Z,35.15
2019-03-11T12:04:58.452Z,34.91
2019-03-11T12:07:31.721Z,34.97
2019-03-11T12:10:08.129Z,35.01
2019-03-11T12:12:41.360Z,35.06
2019-03-11T12:15:14.611Z,36.43
2019-03-11T12:17:47.847Z,35.29
2019-03-11T12:20:26.263Z,35.14
2019-03-11T12:22:59.496Z,34.97
2019-03-11T12:25:32.730Z,34.75
2019-03-11T12:28:05.967Z,34.53
2019-03-11T12:30:39.210Z,34.32
2019-03-11T12:33:12.441Z,34.37
2019-03-11T12:35:45.675Z,34.28
2019-03-11T12:38:19.150Z,34.16
2019-03-11T12:40:52.394Z,34.13
2019-03-11T12:43:25.630Z,34.06
2019-03-11T12:45:59.839Z,34.04
2019-03-11T12:48:33.073Z,34.02
2019-03-11T12:51:06.318Z,34.06
2019-03-11T12:53:39.550Z,33.92
2019-03-11T12:56:12.781Z,33.97
2019-03-11T12:58:46.006Z,33.97
2019-03-11T13:01:19.252Z,33.75
2019-03-11T13:03:52.492Z,33.74
2019-03-11T13:06:25.749Z,33.69
2019-03-11T13:08:58.987Z,33.58
2019-03-11T13:11:32.237Z,33.57
2019-03-11T13:14:06.441Z,33.62
2019-03-11T13:16:39.698Z,33.58
2019-03-11T13:19:13.740Z,33.58
2019-03-11T13:21:48.753Z,33.58
2019-03-11T13:24:21.946Z,33.57
2019-03-11T13:26:55.203Z,33.55
2019-03-11T13:29:28.439Z,33.51
2019-03-11T13:32:01.672Z,33.52
2019-03-11T13:34:34.908Z,33.52
2019-03-11T13:37:08.154Z,33.55
2019-03-11T13:39:41.394Z,33.59
2019-03-11T13:42:14.636Z,33.70
2019-03-11T13:44:47.871Z,33.88
2019-03-11T13:47:21.127Z,34.12
2019-03-11T13:49:54.359Z,34.03
2019-03-11T13:52:27.607Z,33.92
2019-03-11T13:55:09.719Z,33.90
2019-03-11T13:57:35.785Z,33.94
2019-03-11T14:00:11.865Z,33.96
2019-03-11T14:02:45.187Z,34.02
2019-03-11T14:05:18.424Z,34.00
2019-03-11T14:07:51.681Z,33.85
2019-03-11T14:10:24.905Z,33.80
2019-03-11T14:12:58.149Z,33.53
2019-03-11T14:15:31.387Z,33.81
2019-03-11T14:18:04.618Z,33.67
2019-03-11T14:20:37.851Z,33.57
2019-03-11T14:23:11.107Z,33.54
2019-03-11T14:25:44.337Z,33.51
2019-03-11T14:28:17.604Z,33.48
2019-03-11T14:30:51.089Z,33.42
2019-03-11T14:33:24.363Z,33.55
2019-03-11T14:35:57.597Z,33.74
2019-03-11T14:38:30.842Z,33.80
2019-03-11T14:41:04.074Z,33.96
2019-03-11T14:43:37.320Z,33.94
2019-03-11T14:46:10.558Z,34.60
2019-03-11T14:48:43.798Z,34.57
2019-03-11T14:51:17.020Z,34.45
2019-03-11T14:53:50.281Z,34.62
2019-03-11T14:56:23.514Z,34.58
2019-03-11T14:58:56.760Z,34.58
2019-03-11T15:01:30.409Z,34.57
2019-03-11T15:04:03.651Z,34.38
2019-03-11T15:06:36.890Z,34.17
2019-03-11T15:09:10.123Z,34.14
2019-03-11T15:11:43.357Z,34.17
2019-03-11T15:14:16.617Z,34.09
2019-03-11T15:16:49.850Z,34.01
2019-03-11T15:19:23.097Z,34.07
2019-03-11T15:21:56.333Z,34.14
2019-03-11T15:24:29.586Z,34.13
2019-03-11T15:27:02.821Z,34.11
2019-03-11T15:29:36.069Z,34.11
2019-03-11T15:32:09.304Z,34.20
2019-03-11T15:34:42.562Z,34.33
2019-03-11T15:37:15.791Z,34.36
2019-03-11T15:39:49.051Z,34.38
2019-03-11T15:42:22.287Z,34.28
2019-03-11T15:44:55.527Z,34.39
2019-03-11T15:47:28.756Z,34.45
2019-03-11T15:50:02.003Z,34.59
2019-03-11T15:52:35.473Z,35.03
2019-03-11T15:55:11.357Z,35.29
2019-03-11T15:57:44.592Z,34.92
2019-03-11T16:00:19.235Z,34.85
2019-03-11T16:02:52.417Z,34.69
2019-03-11T16:05:25.835Z,34.59
2019-03-11T16:07:59.068Z,34.46
2019-03-11T16:10:32.333Z,34.36
2019-03-11T16:13:05.573Z,34.29
2019-03-11T16:15:38.835Z,34.21
2019-03-11T16:18:12.069Z,34.37
2019-03-11T16:20:45.307Z,34.49
2019-03-11T16:23:18.542Z,34.47
2019-03-11T16:25:51.788Z,34.49
2019-03-11T16:28:25.027Z,34.49
2019-03-11T16:30:58.283Z,35.23
2019-03-11T16:33:34.021Z,35.79
2019-03-11T16:36:06.452Z,35.54
2019-03-11T16:38:39.677Z,35.61
2019-03-11T16:41:12.937Z,36.00
2019-03-11T16:43:46.174Z,36.10
2019-03-11T16:46:19.448Z,37.63
2019-03-11T16:48:52.677Z,37.66
2019-03-11T16:51:25.934Z,37.99
2019-03-11T16:53:59.179Z,38.05
2019-03-11T16:56:32.425Z,37.96
2019-03-11T16:59:05.654Z,35.80
2019-03-11T17:01:38.909Z,35.20
2019-03-11T17:04:12.148Z,35.01
2019-03-11T17:06:45.402Z,34.37
2019-03-11T17:09:18.633Z,34.36
2019-03-11T17:11:51.882Z,33.88
2019-03-11T17:14:25.119Z,34.03
2019-03-11T17:16:58.373Z,33.86
2019-03-11T17:19:31.622Z,33.49
2019-03-11T17:22:04.864Z,33.51
2019-03-11T17:24:38.096Z,33.68
2019-03-11T17:27:11.341Z,35.29
2019-03-11T17:29:44.580Z,37.83
2019-03-11T17:32:17.820Z,37.08
2019-03-11T17:34:51.052Z,35.43
2019-03-11T17:37:24.292Z,35.47
2019-03-11T17:39:57.524Z,35.72
2019-03-11T17:42:30.764Z,35.65
2019-03-11T17:45:07.255Z,35.74
2019-03-11T17:47:40.499Z,35.47
2019-03-11T17:50:18.387Z,35.22
2019-03-11T17:52:51.633Z,35.22
2019-03-11T17:55:24.855Z,35.08
2019-03-11T17:57:58.097Z,34.93
2019-03-11T18:00:31.341Z,35.06
2019-03-11T18:03:04.594Z,34.78
2019-03-11T18:05:37.829Z,34.83
2019-03-11T18:08:11.083Z,34.82
2019-03-11T18:10:44.316Z,34.61
2019-03-11T18:13:17.558Z,34.70
2019-03-11T18:15:50.790Z,34.72
2019-03-11T18:18:32.754Z,34.69
2019-03-11T18:20:59.927Z,34.65
2019-03-11T18:23:33.210Z,34.61
2019-03-11T18:26:06.451Z,34.51
2019-03-11T18:28:39.719Z,34.63
2019-03-11T18:31:12.943Z,34.58
2019-03-11T18:33:46.207Z,34.80
2019-03-11T18:36:19.409Z,34.89
2019-03-11T18:38:52.655Z,34.81
2019-03-11T18:41:25.934Z,35.45
2019-03-11T18:43:59.143Z,35.62
2019-03-11T18:46:32.377Z,35.82
2019-03-11T18:49:05.687Z,36.01
2019-03-11T18:51:38.945Z,36.01
2019-03-11T18:54:12.312Z,35.91
2019-03-11T18:56:45.580Z,35.89
2019-03-11T18:59:18.848Z,36.01
2019-03-11T19:01:52.093Z,35.97
2019-03-11T19:04:25.312Z,35.96
2019-03-11T19:06:58.551Z,35.91
2019-03-11T19:09:31.840Z,35.91
2019-03-11T19:12:05.068Z,35.79
2019-03-11T19:14:38.298Z,35.76
2019-03-11T19:17:11.523Z,35.67
2019-03-11T19:19:46.411Z,35.54
2019-03-11T19:22:19.867Z,35.54
2019-03-11T19:24:53.142Z,35.48
2019-03-11T19:27:26.358Z,35.52
2019-03-11T19:29:59.599Z,35.54
2019-03-11T19:32:32.883Z,35.48
2019-03-11T19:35:06.797Z,35.42
2019-03-11T19:37:40.049Z,35.47
2019-03-11T19:40:21.113Z,35.42
2019-03-11T19:42:54.401Z,35.46
2019-03-11T19:45:27.632Z,35.56
2019-03-11T19:48:01.127Z,36.23
2019-03-11T19:50:34.410Z,35.83
2019-03-11T19:53:07.654Z,35.71
2019-03-11T19:55:40.948Z,35.57
2019-03-11T19:58:14.139Z,35.58
2019-03-11T20:00:47.675Z,35.58
2019-03-11T20:03:27.890Z,35.59
2019-03-11T20:05:55.772Z,35.66
2019-03-11T20:08:29.006Z,35.73
2019-03-11T20:11:02.265Z,35.76
2019-03-11T20:13:36.608Z,35.70
2019-03-11T20:16:10.002Z,35.76
2019-03-11T20:18:43.249Z,35.75
2019-03-11T20:21:16.514Z,35.74
2019-03-11T20:23:50.009Z,35.80
2019-03-11T20:26:23.479Z,35.78
2019-03-11T20:28:56.753Z,35.78
2019-03-11T20:31:30.043Z,35.83
2019-03-11T20:34:03.304Z,35.79
2019-03-11T20:36:36.621Z,35.75
2019-03-11T20:39:09.801Z,35.67
2019-03-11T20:41:43.225Z,35.86
2019-03-11T20:44:17.394Z,36.22
2019-03-11T20:46:50.730Z,36.35
2019-03-11T20:49:24.004Z,36.43
2019-03-11T20:51:59.989Z,36.40
2019-03-11T20:54:33.217Z,36.58
2019-03-11T20:57:06.415Z,36.22
2019-03-11T20:59:39.652Z,36.17
2019-03-11T21:02:12.912Z,36.10
2019-03-11T21:04:46.100Z,35.88
2019-03-11T21:07:19.377Z,35.79
2019-03-11T21:09:52.639Z,35.76
2019-03-11T21:12:26.096Z,35.50
2019-03-11T21:15:00.371Z,35.46
2019-03-11T21:17:33.560Z,35.20
2019-03-11T21:20:09.316Z,35.16
2019-03-11T21:22:42.548Z,35.11
2019-03-11T21:25:19.079Z,35.11
2019-03-11T21:27:52.379Z,34.87
2019-03-11T21:30:25.920Z,35.73
2019-03-11T21:32:59.158Z,36.04
2019-03-11T21:35:32.421Z,36.45
2019-03-11T21:38:05.743Z,35.83
2019-03-11T21:40:39.012Z,35.69
2019-03-11T21:43:12.356Z,35.77
2019-03-11T21:45:45.581Z,35.53
2019-03-11T21:48:18.766Z,35.44
2019-03-11T21:50:52.268Z,35.28
2019-03-11T21:53:25.506Z,35.24
2019-03-11T21:55:58.762Z,35.37
2019-03-11T21:58:32.045Z,35.20
2019-03-11T22:01:05.324Z,35.28
2019-03-11T22:03:38.499Z,35.24
2019-03-11T22:06:11.728Z,35.16
2019-03-11T22:08:44.971Z,35.12
2019-03-11T22:11:18.205Z,35.14
2019-03-11T22:13:51.452Z,35.15
2019-03-11T22:16:24.689Z,35.10
2019-03-11T22:18:57.932Z,35.10
2019-03-11T22:21:31.166Z,35.09
2019-03-11T22:24:04.407Z,35.05
2019-03-11T22:26:37.641Z,35.06
2019-03-11T22:29:10.925Z,35.09
2019-03-11T22:31:44.129Z,35.14
2019-03-11T22:34:17.378Z,35.10
2019-03-11T22:36:50.602Z,35.06
2019-03-11T22:39:23.853Z,35.02
2019-03-11T22:41:57.069Z,35.00
2019-03-11T22:44:30.380Z,34.89
2019-03-11T22:47:03.633Z,34.85
2019-03-11T22:49:36.857Z,34.88
2019-03-11T22:52:10.111Z,34.85
2019-03-11T22:54:43.340Z,34.80
2019-03-11T22:57:16.594Z,34.88
2019-03-11T22:59:49.823Z,34.78
2019-03-11T23:02:23.076Z,34.84
2019-03-11T23:04:56.314Z,34.81
2019-03-11T23:07:29.551Z,34.80
2019-03-11T23:10:03.455Z,34.84
2019-03-11T23:12:37.966Z,34.87
2019-03-11T23:15:11.192Z,34.92
2019-03-11T23:17:44.440Z,34.95
2019-03-11T23:20:17.666Z,34.99
2019-03-11T23:22:51.003Z,35.02
2019-03-11T23:25:24.235Z,35.09
2019-03-11T23:27:57.477Z,35.10
2019-03-11T23:30:30.709Z,35.17
2019-03-11T23:33:03.942Z,35.18
2019-03-11T23:35:37.175Z,35.18
2019-03-11T23:38:10.419Z,35.24
2019-03-11T23:40:44.630Z,35.27
2019-03-11T23:43:17.871Z,35.31
2019-03-11T23:45:51.097Z,35.33
2019-03-11T23:48:24.348Z,35.39
2019-03-11T23:50:57.584Z,35.41
2019-03-11T23:53:30.824Z,35.45
2019-03-11T23:56:04.064Z,35.45
2019-03-11T23:58:37.305Z,35.49
